createdAt,value
2019-05-16T00:00:41.334Z,78.83
2019-05-16T00:01:41.333Z,78.01
2019-05-16T00:02:41.301Z,77.97
2019-05-16T00:03:41.288Z,78.01
2019-05-16T00:04:41.270Z,78.21
2019-05-16T00:05:50.896Z,78.21
2019-05-16T00:06:42.315Z,77.80
2019-05-16T00:07:41.244Z,77.59
2019-05-16T00:08:41.284Z,77.49
2019-05-16T00:09:41.225Z,77.49
2019-05-16T00:10:41.209Z,77.73
2019-05-16T00:11:41.183Z,78.25
2019-05-16T00:12:41.212Z,78.14
2019-05-16T00:13:41.172Z,78.77
2019-05-16T00:14:41.157Z,79.28
2019-05-16T00:15:41.194Z,79.28
2019-05-16T00:16:41.167Z,78.77
2019-05-16T00:17:41.122Z,79.28
2019-05-16T00:18:41.168Z,79.18
2019-05-16T00:19:41.108Z,79.08
2019-05-16T00:20:41.113Z,79.42
2019-05-16T00:21:41.091Z,79.28
2019-05-16T00:22:41.072Z,79.28
2019-05-16T00:23:41.057Z,78.39
2019-05-16T00:24:41.088Z,77.87
2019-05-16T00:25:41.044Z,77.94
2019-05-16T00:26:41.036Z,77.94
2019-05-16T00:27:41.015Z,78.08
2019-05-16T00:28:41.034Z,78.39
2019-05-16T00:29:40.999Z,78.91
2019-05-16T00:30:41.043Z,78.39
2019-05-16T00:31:40.974Z,78.80
2019-05-16T00:32:40.964Z,78.39
2019-05-16T00:33:40.947Z,78.49
2019-05-16T00:34:40.941Z,78.08
2019-05-16T00:35:40.929Z,77.67
2019-05-16T00:36:40.952Z,78.28
2019-05-16T00:37:40.907Z,78.39
2019-05-16T00:38:40.889Z,77.56
2019-05-16T00:39:40.889Z,77.56
2019-05-16T00:40:40.897Z,77.67
2019-05-16T00:41:40.884Z,77.67
2019-05-16T00:42:40.904Z,77.15
2019-05-16T00:43:40.838Z,77.25
2019-05-16T00:44:40.832Z,78.08
2019-05-16T00:45:40.821Z,78.32
2019-05-16T00:46:40.816Z,78.42
2019-05-16T00:47:40.799Z,78.74
2019-05-16T00:48:40.909Z,78.22
2019-05-16T00:49:40.786Z,79.25
2019-05-16T00:50:40.768Z,79.19
2019-05-16T00:51:40.761Z,79.29
2019-05-16T00:52:40.784Z,78.77
2019-05-16T00:53:40.730Z,79.19
2019-05-16T00:54:40.782Z,78.88
2019-05-16T00:55:40.709Z,78.98
2019-05-16T00:56:40.704Z,78.77
2019-05-16T00:57:40.731Z,79.91
2019-05-16T00:58:40.685Z,79.29
2019-05-16T00:59:40.673Z,79.08
2019-05-16T01:00:40.726Z,79.60
2019-05-16T01:01:40.668Z,79.39
2019-05-16T01:02:40.636Z,79.60
2019-05-16T01:03:40.625Z,79.49
2019-05-16T01:04:40.611Z,78.60
2019-05-16T01:05:40.630Z,79.12
2019-05-16T01:06:40.647Z,79.33
2019-05-16T01:07:40.621Z,79.12
2019-05-16T01:08:40.585Z,79.49
2019-05-16T01:09:40.567Z,78.81
2019-05-16T01:10:40.554Z,79.43
2019-05-16T01:11:40.575Z,78.91
2019-05-16T01:12:40.564Z,80.36
2019-05-16T01:13:40.515Z,80.40
2019-05-16T01:14:40.504Z,80.57
2019-05-16T01:15:40.545Z,80.05
2019-05-16T01:16:40.472Z,80.15
2019-05-16T01:17:40.473Z,80.05
2019-05-16T01:18:40.524Z,79.67
2019-05-16T01:19:40.453Z,79.43
2019-05-16T01:20:40.437Z,80.19
2019-05-16T01:21:40.424Z,79.57
2019-05-16T01:22:40.415Z,78.70
2019-05-16T01:23:40.417Z,78.74
2019-05-16T01:24:41.540Z,79.77
2019-05-16T01:25:40.387Z,78.53
2019-05-16T01:26:40.384Z,79.67
2019-05-16T01:27:40.355Z,79.77
2019-05-16T01:28:40.388Z,78.95
2019-05-16T01:29:40.342Z,79.50
2019-05-16T01:30:40.422Z,79.60
2019-05-16T01:31:40.323Z,79.36
2019-05-16T01:32:40.307Z,79.16
2019-05-16T01:33:40.291Z,79.26
2019-05-16T01:34:40.280Z,78.85
2019-05-16T01:35:41.814Z,79.16
2019-05-16T01:36:40.884Z,79.47
2019-05-16T01:37:40.250Z,79.30
2019-05-16T01:38:40.244Z,79.26
2019-05-16T01:39:40.272Z,79.40
2019-05-16T01:40:40.218Z,79.71
2019-05-16T01:41:40.227Z,79.05
2019-05-16T01:42:40.282Z,79.40
2019-05-16T01:43:40.189Z,79.16
2019-05-16T01:44:40.188Z,80.19
2019-05-16T01:45:40.177Z,80.22
2019-05-16T01:46:40.154Z,80.19
2019-05-16T01:47:40.162Z,79.77
2019-05-16T01:48:40.198Z,80.50
2019-05-16T01:49:40.198Z,80.60
2019-05-16T01:50:40.148Z,80.81
2019-05-16T01:51:40.101Z,80.43
2019-05-16T01:52:40.089Z,80.40
2019-05-16T01:53:40.077Z,80.40
2019-05-16T01:54:40.137Z,80.43
2019-05-16T01:55:40.056Z,80.71
2019-05-16T01:56:40.042Z,80.60
2019-05-16T01:57:40.028Z,80.43
2019-05-16T01:58:40.021Z,80.50
2019-05-16T01:59:40.009Z,79.77
2019-05-16T02:00:49.659Z,80.54
2019-05-16T02:01:41.003Z,79.60
2019-05-16T02:02:40.002Z,79.98
2019-05-16T02:03:39.998Z,80.50
2019-05-16T02:04:39.968Z,80.40
2019-05-16T02:05:39.950Z,80.40
2019-05-16T02:06:50.700Z,80.40
2019-05-16T02:07:40.928Z,80.29
2019-05-16T02:08:39.916Z,80.43
2019-05-16T02:09:39.971Z,79.60
2019-05-16T02:10:39.901Z,80.02
2019-05-16T02:11:39.878Z,80.50
2019-05-16T02:12:40.017Z,79.98
2019-05-16T02:13:39.866Z,79.16
2019-05-16T02:14:39.846Z,79.26
2019-05-16T02:15:39.842Z,79.98
2019-05-16T02:16:39.833Z,79.98
2019-05-16T02:17:39.813Z,80.08
2019-05-16T02:18:39.907Z,79.77
2019-05-16T02:19:39.805Z,80.19
2019-05-16T02:20:39.783Z,80.08
2019-05-16T02:21:39.779Z,79.26
2019-05-16T02:22:39.760Z,80.08
2019-05-16T02:23:39.826Z,80.08
2019-05-16T02:24:39.810Z,79.67
2019-05-16T02:25:40.783Z,80.50
2019-05-16T02:26:39.719Z,79.94
2019-05-16T02:27:40.982Z,79.94
2019-05-16T02:28:43.028Z,80.08
2019-05-16T02:29:40.213Z,79.47
2019-05-16T02:30:42.208Z,80.08
2019-05-16T02:31:42.087Z,79.74
2019-05-16T02:32:41.641Z,80.57
2019-05-16T02:33:40.507Z,80.57
2019-05-16T02:34:41.723Z,80.77
2019-05-16T02:35:40.477Z,80.60
2019-05-16T02:36:40.489Z,80.57
2019-05-16T02:37:42.100Z,80.67
2019-05-16T02:38:42.296Z,81.29
2019-05-16T02:39:40.927Z,81.09
2019-05-16T02:40:41.736Z,80.67
2019-05-16T02:41:45.614Z,80.36
2019-05-16T02:42:41.989Z,80.26
2019-05-16T02:43:42.014Z,80.57
2019-05-16T02:44:41.321Z,80.57
2019-05-16T02:45:41.445Z,80.43
2019-05-16T02:46:41.788Z,80.46
2019-05-16T02:47:42.403Z,80.63
2019-05-16T02:48:41.026Z,80.43
2019-05-16T02:49:41.887Z,81.05
2019-05-16T02:50:41.424Z,81.15
2019-05-16T02:51:40.634Z,81.05
2019-05-16T02:52:41.297Z,81.25
2019-05-16T02:53:41.533Z,80.84
2019-05-16T02:54:41.133Z,80.74
2019-05-16T02:55:41.117Z,80.53
2019-05-16T02:56:41.881Z,80.53
2019-05-16T02:57:41.576Z,80.74
2019-05-16T02:58:44.250Z,80.74
2019-05-16T02:59:41.570Z,80.39
2019-05-16T03:00:42.682Z,80.32
2019-05-16T03:01:40.959Z,80.32
2019-05-16T03:02:41.960Z,80.70
2019-05-16T03:03:40.193Z,80.80
2019-05-16T03:04:43.193Z,80.80
2019-05-16T03:05:41.906Z,80.39
2019-05-16T03:06:41.130Z,80.29
2019-05-16T03:07:43.428Z,80.43
2019-05-16T03:08:41.258Z,81.11
2019-05-16T03:09:41.065Z,80.90
2019-05-16T03:10:41.311Z,80.49
2019-05-16T03:11:41.891Z,80.70
2019-05-16T03:12:41.144Z,79.56
2019-05-16T03:13:42.130Z,80.39
2019-05-16T03:14:41.906Z,80.08
2019-05-16T03:15:40.713Z,80.60
2019-05-16T03:16:41.883Z,80.49
2019-05-16T03:17:40.293Z,81.21
2019-05-16T03:18:41.424Z,80.70
2019-05-16T03:19:41.835Z,81.01
2019-05-16T03:20:40.781Z,80.60
2019-05-16T03:21:41.327Z,80.60
2019-05-16T03:22:40.948Z,80.90
2019-05-16T03:23:42.010Z,81.32
2019-05-16T03:24:42.136Z,81.73
2019-05-16T03:25:41.754Z,81.84
2019-05-16T03:26:40.911Z,81.84
2019-05-16T03:27:41.331Z,81.94
2019-05-16T03:28:41.306Z,81.94
2019-05-16T03:29:41.733Z,82.04
2019-05-16T03:30:44.716Z,82.18
2019-05-16T03:31:44.381Z,82.76
2019-05-16T03:32:44.903Z,83.28
2019-05-16T03:33:48.854Z,83.07
2019-05-16T03:34:44.116Z,83.18
2019-05-16T03:35:44.048Z,83.70
2019-05-16T03:36:43.827Z,83.70
2019-05-16T03:37:51.397Z,84.00
2019-05-16T03:38:41.294Z,83.90
2019-05-16T03:39:40.708Z,83.90
2019-05-16T03:40:41.208Z,83.70
2019-05-16T03:41:41.529Z,83.39
2019-05-16T03:42:41.676Z,83.65
2019-05-16T03:43:41.200Z,83.76
2019-05-16T03:44:41.105Z,84.07
2019-05-16T03:45:41.652Z,83.97
2019-05-16T03:46:41.365Z,83.14
2019-05-16T03:47:42.320Z,83.25
2019-05-16T03:48:40.856Z,82.73
2019-05-16T03:49:41.981Z,83.14
2019-05-16T03:50:41.257Z,83.14
2019-05-16T03:51:41.334Z,82.93
2019-05-16T03:52:42.933Z,82.73
2019-05-16T03:53:40.397Z,83.20
2019-05-16T03:54:41.750Z,83.10
2019-05-16T03:55:40.685Z,83.76
2019-05-16T03:56:40.878Z,83.65
2019-05-16T03:57:41.547Z,82.73
2019-05-16T03:58:41.514Z,81.76
2019-05-16T03:59:40.854Z,81.28
2019-05-16T04:00:45.376Z,81.80
2019-05-16T04:01:41.004Z,81.90
2019-05-16T04:02:42.038Z,81.28
2019-05-16T04:03:41.198Z,81.04
2019-05-16T04:04:41.501Z,80.56
2019-05-16T04:05:41.346Z,80.76
2019-05-16T04:06:41.455Z,80.97
2019-05-16T04:07:41.444Z,80.66
2019-05-16T04:08:41.300Z,80.66
2019-05-16T04:09:41.242Z,81.18
2019-05-16T04:10:40.913Z,80.83
2019-05-16T04:11:42.138Z,80.73
2019-05-16T04:12:41.759Z,80.25
2019-05-16T04:13:41.091Z,78.87
2019-05-16T04:14:40.978Z,79.38
2019-05-16T04:15:40.810Z,79.80
2019-05-16T04:16:41.212Z,79.90
2019-05-16T04:17:41.258Z,78.77
2019-05-16T04:18:41.729Z,78.87
2019-05-16T04:19:41.336Z,78.45
2019-05-16T04:20:40.607Z,78.77
2019-05-16T04:21:41.758Z,78.25
2019-05-16T04:22:40.864Z,78.56
2019-05-16T04:23:41.688Z,78.77
2019-05-16T04:24:41.562Z,79.38
2019-05-16T04:25:40.992Z,79.18
2019-05-16T04:26:40.951Z,79.18
2019-05-16T04:27:41.257Z,78.97
2019-05-16T04:28:41.241Z,79.28
2019-05-16T04:29:40.852Z,79.49
2019-05-16T04:30:41.332Z,80.00
2019-05-16T04:31:41.064Z,79.76
2019-05-16T04:32:41.469Z,80.28
2019-05-16T04:33:41.621Z,80.38
2019-05-16T04:34:41.547Z,79.66
2019-05-16T04:35:40.988Z,78.83
2019-05-16T04:36:40.653Z,78.42
2019-05-16T04:37:41.744Z,80.28
2019-05-16T04:38:45.120Z,79.11
2019-05-16T04:39:41.504Z,78.42
2019-05-16T04:40:39.487Z,78.69
2019-05-16T04:41:40.955Z,78.18
2019-05-16T04:42:41.338Z,78.28
2019-05-16T04:43:41.331Z,77.62
2019-05-16T04:44:41.378Z,77.25
2019-05-16T04:45:41.312Z,77.87
2019-05-16T04:46:41.087Z,77.42
2019-05-16T04:47:41.191Z,78.04
2019-05-16T04:48:41.442Z,77.22
2019-05-16T04:49:41.095Z,76.18
2019-05-16T04:50:38.143Z,75.05
2019-05-16T04:51:41.273Z,75.36
2019-05-16T04:52:41.364Z,75.46
2019-05-16T04:53:38.114Z,75.67
2019-05-16T04:54:41.517Z,75.36
2019-05-16T04:55:38.093Z,76.18
2019-05-16T04:56:40.994Z,76.39
2019-05-16T04:57:41.775Z,76.59
2019-05-16T04:58:40.637Z,76.25
2019-05-16T04:59:41.439Z,75.94
2019-05-16T05:00:38.032Z,76.87
2019-05-16T05:01:41.070Z,76.25
2019-05-16T05:02:41.229Z,76.76
2019-05-16T05:03:40.857Z,76.66
2019-05-16T05:04:41.369Z,76.87
2019-05-16T05:05:41.235Z,76.97
2019-05-16T05:06:40.486Z,77.18
2019-05-16T05:07:40.559Z,77.28
2019-05-16T05:08:50.564Z,76.87
2019-05-16T05:09:40.908Z,76.87
2019-05-16T05:10:40.469Z,76.90
2019-05-16T05:11:41.055Z,76.46
2019-05-16T05:12:40.543Z,76.87
2019-05-16T05:13:37.891Z,77.28
2019-05-16T05:14:37.888Z,77.18
2019-05-16T05:15:40.105Z,77.18
2019-05-16T05:16:37.862Z,76.46
2019-05-16T05:17:37.851Z,76.46
2019-05-16T05:18:40.653Z,76.76
2019-05-16T05:19:37.831Z,76.21
2019-05-16T05:20:37.816Z,75.90
2019-05-16T05:21:40.687Z,75.60
2019-05-16T05:22:39.796Z,76.01
2019-05-16T05:23:40.502Z,75.60
2019-05-16T05:24:37.773Z,75.29
2019-05-16T05:25:40.218Z,75.15
2019-05-16T05:26:37.762Z,75.46
2019-05-16T05:27:37.786Z,76.39
2019-05-16T05:28:40.067Z,75.35
2019-05-16T05:29:39.851Z,75.77
2019-05-16T05:30:37.709Z,75.77
2019-05-16T05:31:43.664Z,75.87
2019-05-16T05:32:41.056Z,75.90
2019-05-16T05:33:41.349Z,76.28
2019-05-16T05:34:39.785Z,76.90
2019-05-16T05:35:37.655Z,76.59
2019-05-16T05:36:40.626Z,76.79
2019-05-16T05:37:40.729Z,76.70
2019-05-16T05:38:40.104Z,77.42
2019-05-16T05:39:39.589Z,77.42
2019-05-16T05:40:40.251Z,76.97
2019-05-16T05:41:39.943Z,77.11
2019-05-16T05:42:39.777Z,77.00
2019-05-16T05:43:39.631Z,76.66
2019-05-16T05:44:40.040Z,76.04
2019-05-16T05:45:40.058Z,75.70
2019-05-16T05:46:39.925Z,76.01
2019-05-16T05:47:39.979Z,76.42
2019-05-16T05:48:37.512Z,76.01
2019-05-16T05:49:37.501Z,75.80
2019-05-16T05:50:40.031Z,75.29
2019-05-16T05:51:37.478Z,75.67
2019-05-16T05:52:37.484Z,75.25
2019-05-16T05:53:37.459Z,74.95
2019-05-16T05:54:38.454Z,74.40
2019-05-16T05:55:40.307Z,75.12
2019-05-16T05:56:39.672Z,74.91
2019-05-16T05:57:40.067Z,74.36
2019-05-16T05:58:37.418Z,74.98
2019-05-16T05:59:37.391Z,74.26
2019-05-16T06:00:40.397Z,74.46
2019-05-16T06:01:40.436Z,73.54
2019-05-16T06:02:39.974Z,73.23
2019-05-16T06:03:39.737Z,73.10
2019-05-16T06:04:39.440Z,73.30
2019-05-16T06:05:37.324Z,73.10
2019-05-16T06:06:37.314Z,73.10
2019-05-16T06:07:37.300Z,72.48
2019-05-16T06:08:37.331Z,72.99
2019-05-16T06:09:50.448Z,72.65
2019-05-16T06:10:40.448Z,72.55
2019-05-16T06:11:37.260Z,72.75
2019-05-16T06:12:37.259Z,73.06
2019-05-16T06:13:37.235Z,72.10
2019-05-16T06:14:37.262Z,71.69
2019-05-16T06:15:37.215Z,70.26
2019-05-16T06:16:37.250Z,70.87
2019-05-16T06:17:37.194Z,71.21
2019-05-16T06:18:39.566Z,70.70
2019-05-16T06:19:37.169Z,69.13
2019-05-16T06:20:40.100Z,69.23
2019-05-16T06:21:37.150Z,69.43
2019-05-16T06:22:37.148Z,70.36
2019-05-16T06:23:37.130Z,69.64
2019-05-16T06:24:39.777Z,69.20
2019-05-16T06:25:37.115Z,70.22
2019-05-16T06:26:37.180Z,69.89
2019-05-16T06:27:37.086Z,68.76
2019-05-16T06:28:37.089Z,69.27
2019-05-16T06:29:37.074Z,68.96
2019-05-16T06:30:37.052Z,69.17
2019-05-16T06:31:37.039Z,69.47
2019-05-16T06:32:39.411Z,69.13
2019-05-16T06:33:37.017Z,68.38
2019-05-16T06:34:37.027Z,67.97
2019-05-16T06:35:36.995Z,68.08
2019-05-16T06:36:36.985Z,67.87
2019-05-16T06:37:37.132Z,67.83
2019-05-16T06:38:37.018Z,68.62
2019-05-16T06:39:41.990Z,67.80
2019-05-16T06:40:40.092Z,68.93
2019-05-16T06:41:39.951Z,68.76
2019-05-16T06:42:36.939Z,68.35
2019-05-16T06:43:37.029Z,67.83
2019-05-16T06:44:36.954Z,68.65
2019-05-16T06:45:36.902Z,68.73
2019-05-16T06:46:52.649Z,68.32
2019-05-16T06:47:39.718Z,68.41
2019-05-16T06:48:36.881Z,68.62
2019-05-16T06:49:36.851Z,68.41
2019-05-16T06:50:36.872Z,68.90
2019-05-16T06:51:36.847Z,68.28
2019-05-16T06:52:36.819Z,68.49
2019-05-16T06:53:36.803Z,67.43
2019-05-16T06:54:36.792Z,68.15
2019-05-16T06:55:36.785Z,67.64
2019-05-16T06:56:36.830Z,68.05
2019-05-16T06:57:36.758Z,67.87
2019-05-16T06:58:47.425Z,67.94
2019-05-16T06:59:37.735Z,68.84
2019-05-16T07:00:36.725Z,67.10
2019-05-16T07:01:36.716Z,68.22
2019-05-16T07:02:36.770Z,68.01
2019-05-16T07:03:36.695Z,68.39
2019-05-16T07:04:36.687Z,67.68
2019-05-16T07:05:36.688Z,66.42
2019-05-16T07:06:51.785Z,65.50
2019-05-16T07:07:40.170Z,66.83
2019-05-16T07:08:36.658Z,66.01
2019-05-16T07:09:36.634Z,65.70
2019-05-16T07:10:36.619Z,65.77
2019-05-16T07:11:36.605Z,65.60
2019-05-16T07:12:36.595Z,65.09
2019-05-16T07:13:36.613Z,65.40
2019-05-16T07:14:36.578Z,65.80
2019-05-16T07:15:36.567Z,66.93
2019-05-16T07:16:36.557Z,67.00
2019-05-16T07:17:36.545Z,66.90
2019-05-16T07:18:36.546Z,66.08
2019-05-16T07:19:36.564Z,66.59
2019-05-16T07:20:36.568Z,67.30
2019-05-16T07:21:36.582Z,66.08
2019-05-16T07:22:36.495Z,65.64
2019-05-16T07:23:36.488Z,65.54
2019-05-16T07:24:36.568Z,64.59
2019-05-16T07:25:36.520Z,62.96
2019-05-16T07:26:36.464Z,63.37
2019-05-16T07:27:36.445Z,64.39
2019-05-16T07:28:36.426Z,63.95
2019-05-16T07:29:36.443Z,64.36
2019-05-16T07:30:36.417Z,63.13
2019-05-16T07:31:36.462Z,62.18
2019-05-16T07:32:36.407Z,63.00
2019-05-16T07:33:36.374Z,63.71
2019-05-16T07:34:36.360Z,63.10
2019-05-16T07:35:36.369Z,62.80
2019-05-16T07:36:36.353Z,62.90
2019-05-16T07:37:36.386Z,63.18
2019-05-16T07:38:36.457Z,61.14
2019-05-16T07:39:38.679Z,61.75
2019-05-16T07:40:37.333Z,61.21
2019-05-16T07:41:36.291Z,60.73
2019-05-16T07:42:36.297Z,61.31
2019-05-16T07:43:36.288Z,59.66
2019-05-16T07:44:36.262Z,57.95
2019-05-16T07:45:38.501Z,56.83
2019-05-16T07:46:36.224Z,56.93
2019-05-16T07:47:36.230Z,57.72
2019-05-16T07:48:36.213Z,57.42
2019-05-16T07:49:36.391Z,58.13
2019-05-16T07:50:36.182Z,56.88
2019-05-16T07:51:36.168Z,58.30
2019-05-16T07:52:36.683Z,56.75
2019-05-16T07:53:36.146Z,57.64
2019-05-16T07:54:36.135Z,56.73
2019-05-16T07:55:36.176Z,54.51
2019-05-16T07:56:36.115Z,54.61
2019-05-16T07:57:36.103Z,54.13
2019-05-16T07:58:36.100Z,54.85
2019-05-16T07:59:36.082Z,55.79
2019-05-16T08:00:51.973Z,54.66
2019-05-16T08:01:37.110Z,55.10
2019-05-16T08:02:36.059Z,56.32
2019-05-16T08:03:36.037Z,56.22
2019-05-16T08:04:36.047Z,57.98
2019-05-16T08:05:36.019Z,58.18
2019-05-16T08:06:36.004Z,58.11
2019-05-16T08:07:36.033Z,59.81
2019-05-16T08:08:35.986Z,58.89
2019-05-16T08:09:35.984Z,59.20
2019-05-16T08:10:41.999Z,58.82
2019-05-16T08:11:36.947Z,60.93
2019-05-16T08:12:35.940Z,61.82
2019-05-16T08:13:35.975Z,63.04
2019-05-16T08:14:35.920Z,60.37
2019-05-16T08:15:35.916Z,61.59
2019-05-16T08:16:35.918Z,58.94
2019-05-16T08:17:35.888Z,59.12
2019-05-16T08:18:35.874Z,59.50
2019-05-16T08:19:35.912Z,53.88
2019-05-16T08:20:35.871Z,56.19
2019-05-16T08:21:35.876Z,55.48
2019-05-16T08:22:35.902Z,53.75
2019-05-16T08:23:35.818Z,54.16
2019-05-16T08:24:36.342Z,52.73
2019-05-16T08:25:35.848Z,53.47
2019-05-16T08:26:41.082Z,55.20
2019-05-16T08:27:36.773Z,53.27
2019-05-16T08:28:35.783Z,53.50
2019-05-16T08:29:35.759Z,54.31
2019-05-16T08:30:35.744Z,54.31
2019-05-16T08:31:35.765Z,55.51
2019-05-16T08:32:35.724Z,56.12
2019-05-16T08:33:35.717Z,56.21
2019-05-16T08:34:35.712Z,56.90
2019-05-16T08:35:35.702Z,54.64
2019-05-16T08:36:35.678Z,53.39
2019-05-16T08:37:42.772Z,54.51
2019-05-16T08:38:36.660Z,55.02
2019-05-16T08:39:35.644Z,53.37
2019-05-16T08:40:59.650Z,52.76
2019-05-16T08:41:36.621Z,52.58
2019-05-16T08:42:35.613Z,54.51
2019-05-16T08:43:35.653Z,54.44
2019-05-16T08:44:35.591Z,54.31
2019-05-16T08:45:35.585Z,54.54
2019-05-16T08:46:35.587Z,54.54
2019-05-16T08:47:35.558Z,52.61
2019-05-16T08:48:35.550Z,53.80
2019-05-16T08:49:35.583Z,54.24
2019-05-16T08:50:35.521Z,52.99
2019-05-16T08:51:35.511Z,52.99
2019-05-16T08:52:35.517Z,53.91
2019-05-16T08:53:35.505Z,54.28
2019-05-16T08:54:35.477Z,54.59
2019-05-16T08:55:35.513Z,53.80
2019-05-16T08:56:35.463Z,53.17
2019-05-16T08:57:35.460Z,53.04
2019-05-16T08:58:35.464Z,52.00
2019-05-16T08:59:35.425Z,52.89
2019-05-16T09:00:35.413Z,50.56
2019-05-16T09:01:35.676Z,50.38
2019-05-16T09:02:36.904Z,49.98
2019-05-16T09:03:35.380Z,50.59
2019-05-16T09:04:35.425Z,50.48
2019-05-16T09:05:35.359Z,50.48
2019-05-16T09:06:35.352Z,52.84
2019-05-16T09:07:35.404Z,52.86
2019-05-16T09:08:35.330Z,51.75
2019-05-16T09:09:48.549Z,52.36
2019-05-16T09:10:51.428Z,51.72
2019-05-16T09:11:44.013Z,51.93
2019-05-16T09:12:37.218Z,51.09
2019-05-16T09:13:37.020Z,51.09
2019-05-16T09:14:38.817Z,52.61
2019-05-16T09:15:38.773Z,50.60
2019-05-16T09:16:37.169Z,51.50
2019-05-16T09:17:37.445Z,52.28
2019-05-16T09:18:45.964Z,50.46
2019-05-16T09:19:36.834Z,50.46
2019-05-16T09:20:37.440Z,52.79
2019-05-16T09:21:38.197Z,51.35
2019-05-16T09:22:37.767Z,51.75
2019-05-16T09:23:38.089Z,50.43
2019-05-16T09:24:37.663Z,51.04
2019-05-16T09:25:36.863Z,52.59
2019-05-16T09:26:38.113Z,51.57
2019-05-16T09:27:37.880Z,50.86
2019-05-16T09:28:38.714Z,49.67
2019-05-16T09:29:36.682Z,50.48
2019-05-16T09:30:37.029Z,50.51
2019-05-16T09:31:38.288Z,52.20
2019-05-16T09:32:36.950Z,51.50
2019-05-16T09:33:37.379Z,50.15
2019-05-16T09:34:37.861Z,48.83
2019-05-16T09:35:36.986Z,47.92
2019-05-16T09:36:37.182Z,47.02
2019-05-16T09:37:37.373Z,47.39
2019-05-16T09:38:38.335Z,46.67
2019-05-16T09:39:37.141Z,50.41
2019-05-16T09:40:34.989Z,46.67
2019-05-16T09:41:49.764Z,48.46
2019-05-16T09:42:37.214Z,46.95
2019-05-16T09:43:38.553Z,48.16
2019-05-16T09:44:36.987Z,46.24
2019-05-16T09:45:34.948Z,45.43
2019-05-16T09:46:37.420Z,44.64
2019-05-16T09:47:34.930Z,46.97
2019-05-16T09:48:37.741Z,48.06
2019-05-16T09:49:37.080Z,47.25
2019-05-16T09:50:37.730Z,46.62
2019-05-16T09:51:37.417Z,44.29
2019-05-16T09:52:36.442Z,46.52
2019-05-16T09:53:36.642Z,47.96
2019-05-16T09:54:34.970Z,46.95
2019-05-16T09:55:37.280Z,47.33
2019-05-16T09:56:36.823Z,45.10
2019-05-16T09:57:37.297Z,45.12
2019-05-16T09:58:37.033Z,46.34
2019-05-16T09:59:36.931Z,45.94
2019-05-16T10:00:37.182Z,46.75
2019-05-16T10:01:37.064Z,45.20
2019-05-16T10:02:36.707Z,45.81
2019-05-16T10:03:36.990Z,45.71
2019-05-16T10:04:36.770Z,46.54
2019-05-16T10:05:36.995Z,47.35
2019-05-16T10:06:36.913Z,47.17
2019-05-16T10:07:38.473Z,46.56
2019-05-16T10:08:37.289Z,47.78
2019-05-16T10:09:42.054Z,48.59
2019-05-16T10:10:36.928Z,48.08
2019-05-16T10:11:40.954Z,48.18
2019-05-16T10:12:37.094Z,47.88
2019-05-16T10:13:37.288Z,45.96
2019-05-16T10:14:34.656Z,46.26
2019-05-16T10:15:34.634Z,47.19
2019-05-16T10:16:36.668Z,47.27
2019-05-16T10:17:37.087Z,46.38
2019-05-16T10:18:36.918Z,45.96
2019-05-16T10:19:36.667Z,46.67
2019-05-16T10:20:36.645Z,47.07
2019-05-16T10:21:37.192Z,46.24
2019-05-16T10:22:34.565Z,47.13
2019-05-16T10:23:36.448Z,46.32
2019-05-16T10:24:37.345Z,46.12
2019-05-16T10:25:37.529Z,48.24
2019-05-16T10:26:37.047Z,49.13
2019-05-16T10:27:36.603Z,47.00
2019-05-16T10:28:34.484Z,46.52
2019-05-16T10:29:37.547Z,46.83
2019-05-16T10:30:34.516Z,46.12
2019-05-16T10:31:45.126Z,45.41
2019-05-16T10:32:36.467Z,46.75
2019-05-16T10:33:34.433Z,45.45
2019-05-16T10:34:34.396Z,45.33
2019-05-16T10:35:37.325Z,45.25
2019-05-16T10:36:37.135Z,46.92
2019-05-16T10:37:34.367Z,46.50
2019-05-16T10:38:37.267Z,44.98
2019-05-16T10:39:34.352Z,45.57
2019-05-16T10:40:36.686Z,45.14
2019-05-16T10:41:34.324Z,45.83
2019-05-16T10:42:34.345Z,44.39
2019-05-16T10:43:34.297Z,44.75
2019-05-16T10:44:37.968Z,43.95
2019-05-16T10:45:36.717Z,44.35
2019-05-16T10:46:34.276Z,44.95
2019-05-16T10:47:36.906Z,44.83
2019-05-16T10:48:34.275Z,42.82
2019-05-16T10:49:37.948Z,41.51
2019-05-16T10:50:36.959Z,41.22
2019-05-16T10:51:34.262Z,41.65
2019-05-16T10:52:36.436Z,44.21
2019-05-16T10:54:01.021Z,43.20
2019-05-16T10:54:36.996Z,44.43
2019-05-16T10:55:36.694Z,45.37
2019-05-16T10:56:34.160Z,45.95
2019-05-16T10:57:34.263Z,45.54
2019-05-16T10:58:41.655Z,44.84
2019-05-16T11:00:00.421Z,44.74
2019-05-16T11:01:04.973Z,45.87
2019-05-16T11:01:36.688Z,45.77
2019-05-16T11:02:34.171Z,45.67
2019-05-16T11:03:34.092Z,45.99
2019-05-16T11:04:52.724Z,47.91
2019-05-16T11:05:38.862Z,47.20
2019-05-16T11:06:34.102Z,46.50
2019-05-16T11:07:36.875Z,46.09
2019-05-16T11:08:34.043Z,47.51
2019-05-16T11:09:34.017Z,46.91
2019-05-16T11:10:34.030Z,47.61
2019-05-16T11:11:36.631Z,47.08
2019-05-16T11:12:47.675Z,47.16
2019-05-16T11:13:36.915Z,45.93
2019-05-16T11:14:33.980Z,44.74
2019-05-16T11:15:33.958Z,45.45
2019-05-16T11:16:36.679Z,45.47
2019-05-16T11:17:33.935Z,45.97
2019-05-16T11:18:33.971Z,44.86
2019-05-16T11:19:33.911Z,45.34
2019-05-16T11:20:33.994Z,45.25
2019-05-16T11:21:33.900Z,45.93
2019-05-16T11:22:36.769Z,45.62
2019-05-16T11:23:36.576Z,45.95
2019-05-16T11:24:33.920Z,46.45
2019-05-16T11:25:36.510Z,45.14
2019-05-16T11:26:33.840Z,46.56
2019-05-16T11:27:33.827Z,46.66
2019-05-16T11:28:36.538Z,46.15
2019-05-16T11:29:33.804Z,44.74
2019-05-16T11:30:33.878Z,45.12
2019-05-16T11:31:33.782Z,47.02
2019-05-16T11:32:33.797Z,46.21
2019-05-16T11:33:33.761Z,45.50
2019-05-16T11:34:33.751Z,45.50
2019-05-16T11:35:33.743Z,45.30
2019-05-16T11:36:33.812Z,45.20
2019-05-16T11:37:33.720Z,44.79
2019-05-16T11:38:33.721Z,44.19
2019-05-16T11:39:33.709Z,44.39
2019-05-16T11:40:33.705Z,43.77
2019-05-16T11:41:33.677Z,43.59
2019-05-16T11:42:33.705Z,43.79
2019-05-16T11:43:33.656Z,44.17
2019-05-16T11:44:33.649Z,47.80
2019-05-16T11:45:33.640Z,44.85
2019-05-16T11:46:33.637Z,44.39
2019-05-16T11:47:33.665Z,45.90
2019-05-16T11:48:33.661Z,45.42
2019-05-16T11:49:33.607Z,45.87
2019-05-16T11:50:33.587Z,47.08
2019-05-16T11:51:33.575Z,45.77
2019-05-16T11:52:33.577Z,45.47
2019-05-16T11:53:33.551Z,47.39
2019-05-16T11:54:33.570Z,47.08
2019-05-16T11:55:36.971Z,48.10
2019-05-16T11:56:36.892Z,45.34
2019-05-16T11:57:33.508Z,44.49
2019-05-16T11:58:33.495Z,43.28
2019-05-16T11:59:33.484Z,44.17
2019-05-16T12:00:33.511Z,45.97
2019-05-16T12:01:33.484Z,43.04
2019-05-16T12:02:33.454Z,43.65
2019-05-16T12:03:33.446Z,43.66
2019-05-16T12:04:33.431Z,46.37
2019-05-16T12:05:33.423Z,44.02
2019-05-16T12:06:33.440Z,44.43
2019-05-16T12:07:35.061Z,44.51
2019-05-16T12:08:33.396Z,45.00
2019-05-16T12:09:37.261Z,44.69
2019-05-16T12:10:36.332Z,45.72
2019-05-16T12:11:33.355Z,43.48
2019-05-16T12:12:33.406Z,42.58
2019-05-16T12:13:33.335Z,44.07
2019-05-16T12:14:33.332Z,42.96
2019-05-16T12:15:33.322Z,43.06
2019-05-16T12:16:33.355Z,41.93
2019-05-16T12:17:33.312Z,41.55
2019-05-16T12:18:33.323Z,42.25
2019-05-16T12:19:35.419Z,42.76
2019-05-16T12:20:34.280Z,41.91
2019-05-16T12:21:33.252Z,41.53
2019-05-16T12:22:33.242Z,39.01
2019-05-16T12:23:33.235Z,39.34
2019-05-16T12:24:38.751Z,40.55
2019-05-16T12:25:36.705Z,42.13
2019-05-16T12:26:33.200Z,41.25
2019-05-16T12:27:34.063Z,42.13
2019-05-16T12:28:33.181Z,40.28
2019-05-16T12:29:33.169Z,40.79
2019-05-16T12:30:33.205Z,42.11
2019-05-16T12:31:33.181Z,40.70
2019-05-16T12:32:33.138Z,42.03
2019-05-16T12:33:33.129Z,41.31
2019-05-16T12:34:33.130Z,41.51
2019-05-16T12:35:33.108Z,42.11
2019-05-16T12:36:33.127Z,42.32
2019-05-16T12:37:33.117Z,41.39
2019-05-16T12:38:33.083Z,44.23
2019-05-16T12:39:33.073Z,42.90
2019-05-16T12:40:33.056Z,41.39
2019-05-16T12:41:33.047Z,41.49
2019-05-16T12:42:33.081Z,42.10
2019-05-16T12:43:46.184Z,42.49
2019-05-16T12:44:34.014Z,42.19
2019-05-16T12:45:33.005Z,41.47
2019-05-16T12:46:32.995Z,40.77
2019-05-16T12:47:32.985Z,40.08
2019-05-16T12:48:33.028Z,40.89
2019-05-16T12:49:32.969Z,42.60
2019-05-16T12:50:32.956Z,41.85
2019-05-16T12:51:32.948Z,41.55
2019-05-16T12:52:32.936Z,40.57